Buluh Tumbang (H A S Hanandjoeddin) Airport


Codes: WIOD/TJQ
Name: Buluh Tumbang (H A S Hanandjoeddin) Airport
City: Tanjung Pandan-Belitung Island
Country: Indonesia
Elevation: 164 ft.
Wikipedia:

Photos at Buluh Tumbang (H A S Hanandjoeddin) Airport


   Photos courtesy of SpottingLog. You can add your own sightings and photos by signing up for a free trial today.



No photos found.

Weather at Buluh Tumbang (H A S Hanandjoeddin) Airport


Time (UTC)DescriptionTempratureWindCloud coverageVisibilityPressureHumidity
25-Jun-2024 12:00Light Rain24°C2 mph, S71%10000m1008hPa97%
25-Jun-2024 15:00Broken Clouds24°C2 mph, SE57%10000m1008hPa98%
25-Jun-2024 18:00Broken Clouds23°C2 mph, SE59%10000m1009hPa97%
25-Jun-2024 21:00Overcast Clouds23°C2 mph, SE97%10000m1008hPa97%
26-Jun-2024 00:00Overcast Clouds25°C2 mph, S85%10000m1010hPa94%
26-Jun-2024 03:00Broken Clouds31°C4 mph, SE72%10000m1009hPa63%
26-Jun-2024 06:00Light Rain29°C2 mph, N82%10000m1007hPa79%
26-Jun-2024 09:00Light Rain27°C2 mph, NW100%10000m1007hPa87%
26-Jun-2024 12:00Light Rain25°C2 mph, SE94%10000m1009hPa94%
26-Jun-2024 15:00Broken Clouds24°C2 mph, SE64%10000m1011hPa96%
26-Jun-2024 18:00Broken Clouds24°C2 mph, SE81%10000m1010hPa97%
26-Jun-2024 21:00Broken Clouds24°C2 mph, SE70%10000m1008hPa98%
27-Jun-2024 00:00Light Rain25°C2 mph, SE55%10000m1010hPa95%
27-Jun-2024 03:00Light Rain31°C4 mph, SE39%10000m1011hPa66%
27-Jun-2024 06:00Light Rain32°C2 mph, NE58%8384m1008hPa61%
27-Jun-2024 09:00Light Rain29°C2 mph, S87%5192m1007hPa78%
27-Jun-2024 12:00Light Rain25°C2 mph, SE90%10000m1010hPa93%
27-Jun-2024 15:00Light Rain25°C2 mph, SE60%10000m1012hPa96%
27-Jun-2024 18:00Light Rain24°C2 mph, SE67%10000m1010hPa97%
27-Jun-2024 21:00Overcast Clouds24°C2 mph, SE100%10000m1010hPa98%
28-Jun-2024 00:00Overcast Clouds25°C2 mph, E100%10000m1011hPa94%
28-Jun-2024 03:00Light Rain32°C4 mph, SE92%10000m1011hPa61%
28-Jun-2024 06:00Light Rain30°C4 mph, SE75%6204m1009hPa71%
28-Jun-2024 09:00Light Rain28°C2 mph, SE91%10000m1008hPa79%
28-Jun-2024 12:00Light Rain25°C2 mph, SE74%10000m1010hPa92%
28-Jun-2024 15:00Scattered Clouds25°C2 mph, SE35%10000m1011hPa94%
28-Jun-2024 18:00Broken Clouds25°C2 mph, SE67%10000m1010hPa95%
28-Jun-2024 21:00Overcast Clouds24°C2 mph, SE96%10000m1009hPa96%
29-Jun-2024 00:00Light Rain25°C2 mph, SE97%10000m1011hPa95%
29-Jun-2024 03:00Light Rain31°C7 mph, SE58%10000m1011hPa62%
29-Jun-2024 06:00Light Rain33°C9 mph, SE79%10000m1009hPa52%
29-Jun-2024 09:00Light Rain30°C7 mph, SE70%10000m1008hPa64%
29-Jun-2024 12:00Broken Clouds25°C2 mph, SE51%10000m1011hPa90%
29-Jun-2024 15:00Light Rain25°C2 mph, SE69%10000m1012hPa91%
29-Jun-2024 18:00Light Rain24°C2 mph, SE84%10000m1011hPa96%
29-Jun-2024 21:00Moderate Rain24°C2 mph, SE97%10000m1010hPa97%
30-Jun-2024 00:00Moderate Rain25°C4 mph, SE98%10000m1011hPa95%
30-Jun-2024 03:00Broken Clouds31°C9 mph, E53%10000m1011hPa59%
30-Jun-2024 06:00Light Rain30°C9 mph, E63%10000m1009hPa62%
30-Jun-2024 09:00Light Rain28°C7 mph, E89%10000m1009hPa71%